< < Back
Terminal Aerodrome Forecast


Current Version              Previous Versions:   1  2  3  4  5  6  7  8  9  

Terminal Aerodrome Forecast

139
FTUS42 KGSP 261957 AAA
TAFGSP
TAF AMD
KGSP 261957Z 2620/2718 22006KT P6SM VCTS SCT060CB
      TEMPO 2620/2622 4SM -TSRA BKN040CB
     FM270200 25003KT P6SM SCT070=



Latest METAR

979
SAUS70 KWBC 261900 RRJ
MTRGSP
METAR KGSP 261853Z 19006KT 10SM SCT055 BKN090 OVC110 27/24 A3001 RMK AO2
LTG DSNT NW RAB33E51 SLP149 P0003 T02720244


USA.gov is the U.S. government's official web portal to all federal, state and local government web resources and services.